CheckWX is a tool to help pilots better visualize weather data.  It is not intended as a substitute for an official pre-flight weather briefing.

12:25:54 UTC

RJCC TAF
New Chitose Airport
Chitose / Tomakomai, Japan
TAF RJCC 221105Z 2212/2318 33013KT 9999 FEW008 BKN015 TEMPO 2212/2214 1500 -SHSN FEW005 BKN008 TEMPO 2214/2221 2000 -SHSN TEMPO 2300/2306 1500 -SHSN FEW005 BKN008 BECMG 2312/2315 16006KT

Mar-22@
12:00 UTC

Mar-22 @ 12:00 UTC

Mar-23@
12:00 UTC

Mar-23 @ 12:00 UTC

TAF RJCC 221105Z 2212/2318 33013KT 9999 FEW008 BKN015
Wind
  • 330° at 13 KTS
Cloud Levels
  • Few at 800' AGL
  • Broken at 1,500' AGL

Mar-22@
12:00 UTC

Mar-22 @ 12:00 UTC

Mar-22@
14:00 UTC

Mar-22 @ 14:00 UTC

TEMPO 2212/2214 1500 -SHSN FEW005 BKN008

Temporary

Temporary Changes expected for less than half the time period

Conditions
Light Snow
Cloud Levels
  • Few at 500' AGL
  • Broken at 800' AGL

Mar-22@
14:00 UTC

Mar-22 @ 14:00 UTC

Mar-22@
21:00 UTC

Mar-22 @ 21:00 UTC

TEMPO 2214/2221 2000 -SHSN

Temporary

Temporary Changes expected for less than half the time period

Conditions
Light Snow

Mar-23@
00:00 UTC

Mar-23 @ 00:00 UTC

Mar-23@
06:00 UTC

Mar-23 @ 06:00 UTC

TEMPO 2300/2306 1500 -SHSN FEW005 BKN008

Temporary

Temporary Changes expected for less than half the time period

Conditions
Light Snow
Cloud Levels
  • Few at 500' AGL
  • Broken at 800' AGL

Mar-23@
12:00 UTC

Mar-23 @ 12:00 UTC

Mar-23@
18:00 UTC

Mar-23 @ 18:00 UTC

BECMG 2312/2315 16006KT

Becoming

Becoming Conditions expected by Sat, Mar 23, 2019 @ 15:00 UTC

Wind
  • 160° at 6 KTS
Cloud Levels
  • Few at 800' AGL
  • Broken at 1,500' AGL